Jardim De Angicos, Brazil
Current Conditions -  °F | °C
As of 6:00 PM on Saturday 25 Oct 2014 (Local Time) from SBNT Reporting Station
Few Clouds Few Clouds  
Wind Chill: 79°   Ceiling: Unl
Heat Index: 81°   Visibility: 6mi
Dew Point: 66°   Wind: 13mph
Humidity: 65%   Direction: 130°SE
Pressure: 29.91"   Gusts: NA
Location:  5.65°S, 35.98°W
Report Text: SBNT 252100Z 13011KT 9999 FEW025 26/19 Q1013
Loading
Personal Weather Stations






























Interactive Weather Map New forecast layout! Learn more

10-Day Weather Forecast

Advertisements
Track Severe Weather on mobile